Time;durP1;ratioP1;P1;durP2;ratioP2;P2;SDS_P1;SDS_P2;PMS_P1;PMS_P2;Temp;Humidity;BMP_temperature;BMP_pressure;BME280_temperature;BME280_humidity;BME280_pressure;Samples;Min_cycle;Max_cycle;Signal;HPM_P1;HPM_P2
2023/06/09 00:00:12;;;;;;;5.20;3.90;;;;;;;;;;2024382;29;20017;-90
2023/06/09 00:01:22;;;;;;;4.47;3.88;;;;;;;;;;2031740;29;20005;-88
2023/06/09 00:02:23;;;;;;;5.78;3.60;;;;;;;;;;2025536;29;20107;-90
2023/06/09 00:03:24;;;;;;;5.97;3.90;;;;;;;;;;2023873;29;20108;-90
2023/06/09 00:04:26;;;;;;;5.13;3.50;;;;;;;;;;2017592;29;20025;-90
2023/06/09 00:05:32;;;;;;;5.28;3.63;;;;;;;;;;2026657;29;20080;-90
2023/06/09 00:06:33;;;;;;;5.70;4.05;;;;;;;;;;2032600;29;20572;-90
2023/06/09 00:07:35;;;;;;;3.65;3.35;;;;;;;;;;2018455;29;20036;-90
2023/06/09 00:08:36;;;;;;;4.97;3.85;;;;;;;;;;2025235;29;20027;-89
2023/06/09 00:09:36;;;;;;;6.13;4.25;;;;;;;;;;2049522;29;20046;-89
2023/06/09 00:10:38;;;;;;;5.55;4.20;;;;;;;;;;2034090;29;20017;-90
2023/06/09 00:11:39;;;;;;;5.25;3.97;;;;;;;;;;2033695;29;20016;-86
2023/06/09 00:12:40;;;;;;;10.38;4.45;;;;;;;;;;2031980;29;20027;-91
2023/06/09 00:13:41;;;;;;;7.63;3.58;;;;;;;;;;2017118;29;20654;-90
2023/06/09 00:14:42;;;;;;;5.45;4.22;;;;;;;;;;2024081;29;20032;-91
2023/06/09 00:15:42;;;;;;;4.80;3.92;;;;;;;;;;2024051;29;20040;-90
2023/06/09 00:16:46;;;;;;;4.53;3.83;;;;;;;;;;2025468;29;20029;-91
2023/06/09 00:17:48;;;;;;;5.25;4.45;;;;;;;;;;2032478;29;20028;-91
2023/06/09 00:18:48;;;;;;;4.85;3.70;;;;;;;;;;2032628;29;20024;-90
2023/06/09 00:19:52;;;;;;;6.72;3.80;;;;;;;;;;2032175;29;20048;-91
2023/06/09 00:20:52;;;;;;;6.30;3.90;;;;;;;;;;2024525;29;20032;-91
2023/06/09 00:21:53;;;;;;;6.28;3.63;;;;;;;;;;2016384;29;20207;-91
2023/06/09 00:22:55;;;;;;;5.05;3.58;;;;;;;;;;2022581;29;20040;-91
2023/06/09 00:23:56;;;;;;;5.68;4.13;;;;;;;;;;2029995;29;20144;-90
2023/06/09 00:24:56;;;;;;;8.23;3.70;;;;;;;;;;2038238;29;20064;-89
2023/06/09 00:25:57;;;;;;;4.47;3.38;;;;;;;;;;2034022;29;20118;-89
2023/06/09 00:26:57;;;;;;;6.00;4.13;;;;;;;;;;2033579;29;20153;-90
2023/06/09 00:27:57;;;;;;;5.97;3.72;;;;;;;;;;2041848;29;20020;-88
2023/06/09 00:28:58;;;;;;;4.88;4.05;;;;;;;;;;2041715;29;20035;-90
2023/06/09 00:29:58;;;;;;;6.18;3.75;;;;;;;;;;2024383;29;20033;-91
2023/06/09 00:30:59;;;;;;;5.75;3.80;;;;;;;;;;2016444;29;20124;-90
2023/06/09 00:32:00;;;;;;;8.40;4.25;;;;;;;;;;2024067;29;20408;-91
2023/06/09 00:33:02;;;;;;;10.55;4.03;;;;;;;;;;2024405;29;20017;-91
2023/06/09 00:34:03;;;;;;;4.68;4.15;;;;;;;;;;2032463;29;20120;-90
2023/06/09 00:35:03;;;;;;;5.07;3.97;;;;;;;;;;2032659;29;20167;-90
2023/06/09 00:36:04;;;;;;;6.85;4.25;;;;;;;;;;2023834;29;20021;-90
2023/06/09 00:37:05;;;;;;;7.45;4.47;;;;;;;;;;2023751;29;20021;-90
2023/06/09 00:38:06;;;;;;;5.25;3.85;;;;;;;;;;2023912;29;20024;-90
2023/06/09 00:39:06;;;;;;;7.55;4.45;;;;;;;;;;2023883;29;20119;-90
2023/06/09 00:40:08;;;;;;;6.95;3.90;;;;;;;;;;2024059;29;20061;-90
2023/06/09 00:41:09;;;;;;;6.82;4.32;;;;;;;;;;2024109;29;20052;-91
2023/06/09 00:42:09;;;;;;;6.32;4.07;;;;;;;;;;2025668;29;20035;-90
2023/06/09 00:43:10;;;;;;;6.38;3.92;;;;;;;;;;2036062;29;20123;-90
2023/06/09 00:44:12;;;;;;;5.47;4.68;;;;;;;;;;2042783;29;20024;-90
2023/06/09 00:45:14;;;;;;;5.47;4.10;;;;;;;;;;2035450;29;20040;-90
2023/06/09 00:46:15;;;;;;;4.97;4.22;;;;;;;;;;2027826;29;20066;-90
2023/06/09 00:47:16;;;;;;;6.35;3.95;;;;;;;;;;2024502;29;20021;-90
2023/06/09 00:48:17;;;;;;;3.85;3.45;;;;;;;;;;2030850;29;20023;-90
2023/06/09 00:49:21;;;;;;;4.75;3.92;;;;;;;;;;2027131;29;20031;-91
2023/06/09 00:50:22;;;;;;;6.80;4.20;;;;;;;;;;2035456;29;20029;-90
2023/06/09 00:51:23;;;;;;;7.25;4.25;;;;;;;;;;2034710;29;20059;-90
2023/06/09 00:52:23;;;;;;;5.78;3.92;;;;;;;;;;2036355;29;20076;-90
2023/06/09 00:53:26;;;;;;;5.78;4.18;;;;;;;;;;2034544;29;20059;-89
2023/06/09 00:54:28;;;;;;;6.20;4.40;;;;;;;;;;2033740;29;20024;-89
2023/06/09 00:55:29;;;;;;;8.05;4.80;;;;;;;;;;2025203;29;20192;-89
2023/06/09 00:56:31;;;;;;;5.93;4.28;;;;;;;;;;2017645;29;20109;-89
2023/06/09 00:57:33;;;;;;;5.70;4.25;;;;;;;;;;2025731;29;20043;-90
2023/06/09 00:58:34;;;;;;;4.75;3.72;;;;;;;;;;2033776;29;20035;-90
2023/06/09 00:59:35;;;;;;;5.35;4.22;;;;;;;;;;1678989;29;10246481;-89
2023/06/09 01:00:38;;;;;;;5.72;4.35;;;;;;;;;;2017588;29;20243;-90
2023/06/09 01:01:40;;;;;;;6.63;4.00;;;;;;;;;;2025584;29;20063;-89
2023/06/09 01:02:40;;;;;;;6.05;4.15;;;;;;;;;;2030306;29;20027;-89
2023/06/09 01:03:41;;;;;;;5.00;3.97;;;;;;;;;;2026803;29;20097;-90
2023/06/09 01:04:49;;;;;;;5.70;4.97;;;;;;;;;;2034956;29;20096;-88
2023/06/09 01:06:02;;;;;;;4.72;4.25;;;;;;;;;;2046012;28;20115;-89
2023/06/09 01:07:09;;;;;;;5.93;4.03;;;;;;;;;;2033884;29;20064;-90
2023/06/09 01:08:20;;;;;;;6.95;4.10;;;;;;;;;;2028603;29;20261;-89
2023/06/09 01:09:30;;;;;;;6.85;4.53;;;;;;;;;;2033821;29;20020;-89
2023/06/09 01:10:55;;;;;;;5.13;4.22;;;;;;;;;;2033414;29;20103;-89
2023/06/09 01:12:28;;;;;;;8.10;4.35;;;;;;;;;;2024760;29;20123;-89
2023/06/09 01:13:40;;;;;;;7.28;4.13;;;;;;;;;;2014872;29;20036;-89
2023/06/09 01:15:00;;;;;;;5.43;4.38;;;;;;;;;;2030696;29;20097;-89
2023/06/09 01:16:26;;;;;;;7.03;5.15;;;;;;;;;;2026242;29;20210;-89
2023/06/09 01:17:29;;;;;;;6.03;4.68;;;;;;;;;;2024573;29;20036;-89
2023/06/09 01:18:35;;;;;;;5.10;4.60;;;;;;;;;;2025255;29;20044;-90
2023/06/09 01:19:45;;;;;;;6.50;4.32;;;;;;;;;;2024664;29;20032;-89
2023/06/09 01:20:53;;;;;;;6.80;4.95;;;;;;;;;;2018056;29;20115;-89
2023/06/09 01:21:57;;;;;;;5.35;4.25;;;;;;;;;;2017619;29;20504;-89
2023/06/09 01:23:06;;;;;;;8.18;4.47;;;;;;;;;;2017198;29;20021;-90
2023/06/09 01:24:30;;;;;;;6.72;4.65;;;;;;;;;;2024791;29;20478;-89
2023/06/09 01:25:35;;;;;;;6.70;4.90;;;;;;;;;;2027741;29;20024;-89
2023/06/09 01:26:38;;;;;;;5.63;4.18;;;;;;;;;;2024508;29;20029;-89
2023/06/09 01:27:44;;;;;;;8.93;4.90;;;;;;;;;;2024852;29;20343;-89
2023/06/09 01:28:47;;;;;;;9.35;4.47;;;;;;;;;;2024408;29;20080;-89
2023/06/09 01:29:48;;;;;;;6.28;5.10;;;;;;;;;;2024596;29;20350;-89
2023/06/09 01:30:51;;;;;;;6.03;4.47;;;;;;;;;;2024378;29;20036;-89
2023/06/09 01:31:52;;;;;;;6.38;4.68;;;;;;;;;;2017103;29;20499;-89
2023/06/09 01:32:53;;;;;;;7.13;4.70;;;;;;;;;;2016643;29;20089;-90
2023/06/09 01:33:54;;;;;;;5.28;4.22;;;;;;;;;;2016621;29;20029;-89
2023/06/09 01:34:54;;;;;;;7.22;4.70;;;;;;;;;;2024579;29;20047;-90
2023/06/09 01:35:56;;;;;;;5.70;4.70;;;;;;;;;;2024851;29;20115;-89
2023/06/09 01:36:57;;;;;;;6.63;4.32;;;;;;;;;;1683258;29;10002527;-89
2023/06/09 01:38:00;;;;;;;7.18;4.57;;;;;;;;;;2024709;29;20024;-89
2023/06/09 01:39:00;;;;;;;6.57;4.47;;;;;;;;;;2017175;29;20040;-88
2023/06/09 01:40:01;;;;;;;7.53;5.03;;;;;;;;;;2025130;29;20157;-87
2023/06/09 01:41:03;;;;;;;5.93;4.50;;;;;;;;;;2033887;29;20031;-89
2023/06/09 01:42:06;;;;;;;5.88;4.38;;;;;;;;;;2032796;29;20385;-89
2023/06/09 01:43:07;;;;;;;8.57;4.75;;;;;;;;;;2025106;29;20031;-89
2023/06/09 01:44:07;;;;;;;8.30;4.35;;;;;;;;;;2025035;29;20051;-90
2023/06/09 01:45:10;;;;;;;8.50;4.93;;;;;;;;;;2024562;29;20119;-89
2023/06/09 01:46:12;;;;;;;7.78;4.43;;;;;;;;;;2025160;29;20071;-89
2023/06/09 01:47:15;;;;;;;9.00;5.22;;;;;;;;;;2032885;29;20020;-89
2023/06/09 01:48:40;;;;;;;6.88;5.03;;;;;;;;;;2033112;29;20376;-89
2023/06/09 01:49:59;;;;;;;6.15;4.60;;;;;;;;;;2024779;29;20035;-90
2023/06/09 01:51:07;;;;;;;6.28;4.50;;;;;;;;;;2019637;29;20124;-91
2023/06/09 01:52:18;;;;;;;6.78;4.93;;;;;;;;;;2017940;29;20052;-89
2023/06/09 01:53:26;;;;;;;6.63;4.40;;;;;;;;;;2017533;29;20025;-89
2023/06/09 01:54:29;;;;;;;6.13;4.53;;;;;;;;;;2026201;29;20031;-90
2023/06/09 01:55:38;;;;;;;6.18;4.55;;;;;;;;;;2025116;29;20035;-90
2023/06/09 01:56:45;;;;;;;7.97;4.55;;;;;;;;;;2026090;29;20028;-90
2023/06/09 01:57:56;;;;;;;6.85;5.07;;;;;;;;;;2033261;29;20398;-91
2023/06/09 01:59:05;;;;;;;7.07;4.82;;;;;;;;;;2033221;29;20024;-90
2023/06/09 02:00:07;;;;;;;8.80;4.53;;;;;;;;;;2033185;29;20080;-89
2023/06/09 02:01:10;;;;;;;5.72;4.93;;;;;;;;;;2033248;29;20016;-90
2023/06/09 02:02:12;;;;;;;11.57;6.25;;;;;;;;;;2033064;29;20024;-90
2023/06/09 02:03:16;;;;;;;5.55;4.80;;;;;;;;;;2024734;29;20039;-90
2023/06/09 02:04:19;;;;;;;6.05;4.70;;;;;;;;;;2029316;29;20029;-90
2023/06/09 02:05:22;;;;;;;6.53;4.85;;;;;;;;;;2037165;29;20092;-90
2023/06/09 02:06:26;;;;;;;7.68;5.68;;;;;;;;;;2026004;29;20122;-93
2023/06/09 02:07:27;;;;;;;6.28;4.90;;;;;;;;;;2026271;29;20020;-93
2023/06/09 02:08:30;;;;;;;9.10;4.70;;;;;;;;;;2034757;29;20020;-93
2023/06/09 02:09:32;;;;;;;5.68;4.28;;;;;;;;;;2033978;29;20032;-93
2023/06/09 02:10:33;;;;;;;10.25;4.90;;;;;;;;;;2033790;29;20174;-94
2023/06/09 02:11:33;;;;;;;6.35;5.07;;;;;;;;;;2025588;29;20030;-93
2023/06/09 02:12:34;;;;;;;8.10;4.90;;;;;;;;;;2025060;29;20036;-93
2023/06/09 02:13:35;;;;;;;5.82;4.97;;;;;;;;;;2024901;29;20096;-94
2023/06/09 02:14:36;;;;;;;7.93;4.47;;;;;;;;;;2025508;29;20132;-93
2023/06/09 02:15:36;;;;;;;6.38;4.80;;;;;;;;;;2025252;29;20493;-93
2023/06/09 02:16:37;;;;;;;6.70;4.75;;;;;;;;;;2024894;29;20044;-92
2023/06/09 02:17:39;;;;;;;6.78;5.18;;;;;;;;;;2025200;29;20528;-94
2023/06/09 02:18:40;;;;;;;6.45;5.32;;;;;;;;;;2025291;29;20151;-93
2023/06/09 02:19:41;;;;;;;6.18;5.05;;;;;;;;;;2035757;29;20162;-92
2023/06/09 02:20:42;;;;;;;7.22;4.90;;;;;;;;;;2031309;29;20091;-93
2023/06/09 02:21:43;;;;;;;5.28;4.63;;;;;;;;;;2024875;29;20036;-93
2023/06/09 02:22:43;;;;;;;6.47;5.10;;;;;;;;;;2016955;29;20041;-93
2023/06/09 02:23:44;;;;;;;7.15;4.88;;;;;;;;;;2024821;29;20044;-93
2023/06/09 02:24:44;;;;;;;6.25;4.25;;;;;;;;;;2024777;29;20601;-93
2023/06/09 02:25:45;;;;;;;10.40;5.22;;;;;;;;;;2017349;29;20025;-92
2023/06/09 02:26:49;;;;;;;6.32;4.72;;;;;;;;;;2017057;29;20108;-92
2023/06/09 02:27:50;;;;;;;6.53;5.03;;;;;;;;;;2017403;29;20060;-92
2023/06/09 02:28:50;;;;;;;5.75;4.90;;;;;;;;;;2017107;29;20636;-93
2023/06/09 02:29:50;;;;;;;8.40;5.50;;;;;;;;;;2017122;29;20021;-92
2023/06/09 02:30:51;;;;;;;9.05;5.40;;;;;;;;;;2017063;29;20108;-93
2023/06/09 02:31:54;;;;;;;7.38;5.00;;;;;;;;;;2024844;29;20021;-93
2023/06/09 02:32:55;;;;;;;7.55;5.47;;;;;;;;;;2024847;29;20020;-93
2023/06/09 02:33:55;;;;;;;7.57;5.40;;;;;;;;;;2016797;29;20524;-93
2023/06/09 02:34:56;;;;;;;8.77;5.32;;;;;;;;;;2024789;29;20111;-93
2023/06/09 02:35:57;;;;;;;7.53;5.13;;;;;;;;;;2024690;29;20076;-92
2023/06/09 02:36:59;;;;;;;8.02;4.75;;;;;;;;;;2016832;29;20112;-93
2023/06/09 02:38:04;;;;;;;7.22;4.72;;;;;;;;;;2017065;29;20601;-94
2023/06/09 02:39:05;;;;;;;7.20;4.60;;;;;;;;;;2017491;29;20492;-93
2023/06/09 02:40:08;;;;;;;8.57;5.20;;;;;;;;;;2017185;29;20025;-92
2023/06/09 02:41:08;;;;;;;6.47;4.85;;;;;;;;;;2024749;29;20083;-93
2023/06/09 02:42:09;;;;;;;7.95;4.97;;;;;;;;;;2032981;29;20032;-91
2023/06/09 02:43:09;;;;;;;6.85;4.70;;;;;;;;;;2032988;29;20032;-93
2023/06/09 02:44:10;;;;;;;8.30;5.85;;;;;;;;;;2024789;29;20120;-93
2023/06/09 02:45:10;;;;;;;6.82;5.00;;;;;;;;;;2016528;29;20033;-93
2023/06/09 02:46:12;;;;;;;5.05;4.30;;;;;;;;;;2024483;29;20140;-93
2023/06/09 02:47:12;;;;;;;6.65;5.03;;;;;;;;;;2033048;29;20119;-93
2023/06/09 02:48:14;;;;;;;5.95;4.90;;;;;;;;;;2032844;29;20476;-93
2023/06/09 02:49:16;;;;;;;7.32;5.30;;;;;;;;;;2033157;29;20031;-94
2023/06/09 02:50:17;;;;;;;7.22;5.25;;;;;;;;;;2024682;29;20111;-94
2023/06/09 02:51:20;;;;;;;6.32;5.38;;;;;;;;;;2024887;29;20485;-94
2023/06/09 02:52:22;;;;;;;7.55;5.20;;;;;;;;;;2026408;29;20059;-92
2023/06/09 02:53:22;;;;;;;8.52;5.47;;;;;;;;;;2024834;29;20473;-92
2023/06/09 02:54:22;;;;;;;7.47;5.40;;;;;;;;;;2029797;29;20039;-92
2023/06/09 02:55:23;;;;;;;6.45;5.03;;;;;;;;;;2023127;29;20031;-92
2023/06/09 02:56:24;;;;;;;7.45;5.00;;;;;;;;;;2025333;29;20040;-92
2023/06/09 02:57:25;;;;;;;5.93;4.65;;;;;;;;;;2025168;29;20044;-90
2023/06/09 02:58:26;;;;;;;7.97;5.10;;;;;;;;;;2018346;29;20504;-94
2023/06/09 02:59:26;;;;;;;6.95;5.13;;;;;;;;;;2025177;29;20025;-91
2023/06/09 03:00:27;;;;;;;5.30;4.80;;;;;;;;;;2033838;29;20036;-91
2023/06/09 03:01:28;;;;;;;6.03;5.10;;;;;;;;;;2025509;29;20097;-90
2023/06/09 03:02:28;;;;;;;5.20;4.45;;;;;;;;;;2027466;29;20396;-90
2023/06/09 03:03:29;;;;;;;7.55;4.80;;;;;;;;;;2034182;29;20109;-89
2023/06/09 03:04:29;;;;;;;8.65;5.07;;;;;;;;;;2032580;29;20080;-91
2023/06/09 03:05:30;;;;;;;7.28;5.28;;;;;;;;;;2016350;29;20033;-91
2023/06/09 03:06:32;;;;;;;6.05;5.20;;;;;;;;;;2010634;29;20452;-91
2023/06/09 03:07:33;;;;;;;9.00;5.68;;;;;;;;;;2037339;29;20035;-89
2023/06/09 03:08:34;;;;;;;9.65;4.85;;;;;;;;;;2049209;29;20027;-93
2023/06/09 03:09:34;;;;;;;9.18;5.05;;;;;;;;;;2032857;29;20091;-93
2023/06/09 03:10:35;;;;;;;6.47;4.75;;;;;;;;;;2026267;29;20024;-89
2023/06/09 03:11:36;;;;;;;6.82;5.13;;;;;;;;;;2035222;29;20119;-90
2023/06/09 03:12:36;;;;;;;7.80;4.97;;;;;;;;;;2035681;29;20118;-90
2023/06/09 03:13:37;;;;;;;6.63;4.90;;;;;;;;;;2036317;29;20059;-92
2023/06/09 03:14:37;;;;;;;7.38;5.13;;;;;;;;;;2026979;29;20106;-90
2023/06/09 03:15:40;;;;;;;8.02;5.15;;;;;;;;;;2017739;29;20029;-92
2023/06/09 03:16:42;;;;;;;6.45;4.68;;;;;;;;;;2032959;29;20532;-91
2023/06/09 03:17:43;;;;;;;7.47;5.05;;;;;;;;;;2042075;29;20389;-92
2023/06/09 03:18:43;;;;;;;7.40;5.00;;;;;;;;;;2039758;29;20024;-91
2023/06/09 03:19:44;;;;;;;9.27;5.28;;;;;;;;;;2042203;29;20016;-91
2023/06/09 03:20:45;;;;;;;7.43;5.63;;;;;;;;;;2042691;29;20016;-92
2023/06/09 03:21:47;;;;;;;6.95;4.97;;;;;;;;;;2034656;29;20017;-91
2023/06/09 03:22:48;;;;;;;6.75;4.97;;;;;;;;;;2033992;29;20024;-93
2023/06/09 03:23:49;;;;;;;7.38;5.20;;;;;;;;;;2038370;29;20031;-94
2023/06/09 03:24:49;;;;;;;8.30;5.28;;;;;;;;;;2035215;29;20036;-94
2023/06/09 03:25:51;;;;;;;8.38;5.35;;;;;;;;;;1687917;29;10208348;-90
2023/06/09 03:26:52;;;;;;;7.45;5.60;;;;;;;;;;2034901;29;20088;-92
2023/06/09 03:27:53;;;;;;;8.50;5.40;;;;;;;;;;2027481;29;20040;-92
2023/06/09 03:28:54;;;;;;;7.18;4.95;;;;;;;;;;2025338;29;20027;-95
2023/06/09 03:29:54;;;;;;;7.22;4.97;;;;;;;;;;2032949;29;20073;-93
2023/06/09 03:30:57;;;;;;;9.75;5.53;;;;;;;;;;2032997;29;20365;-92
2023/06/09 03:31:58;;;;;;;6.50;5.28;;;;;;;;;;2032692;29;20039;-92
2023/06/09 03:32:59;;;;;;;6.68;5.18;;;;;;;;;;2041208;29;20080;-92
2023/06/09 03:33:59;;;;;;;7.78;4.93;;;;;;;;;;2050057;29;20051;-94
2023/06/09 03:35:00;;;;;;;8.27;5.80;;;;;;;;;;2042314;29;20031;-94
2023/06/09 03:36:00;;;;;;;7.72;4.93;;;;;;;;;;2034861;29;20059;-95
2023/06/09 03:37:03;;;;;;;6.32;5.25;;;;;;;;;;2034691;29;20108;-93
2023/06/09 03:38:04;;;;;;;6.93;4.80;;;;;;;;;;2042797;29;20047;-93
2023/06/09 03:39:05;;;;;;;9.60;5.00;;;;;;;;;;2050993;29;20024;-94
2023/06/09 03:40:06;;;;;;;10.55;4.95;;;;;;;;;;2050675;29;20012;-92
2023/06/09 03:41:06;;;;;;;7.20;4.85;;;;;;;;;;2041769;29;20079;-92
2023/06/09 03:42:07;;;;;;;9.40;4.82;;;;;;;;;;2032521;29;20072;-91
2023/06/09 03:43:07;;;;;;;6.35;4.88;;;;;;;;;;2037106;29;20038;-91
2023/06/09 03:44:11;;;;;;;9.10;5.13;;;;;;;;;;2042915;29;20106;-93
2023/06/09 03:45:11;;;;;;;6.28;4.90;;;;;;;;;;2048138;29;20108;-92
2023/06/09 03:46:12;;;;;;;6.40;4.88;;;;;;;;;;2046882;29;20016;-93
2023/06/09 03:47:14;;;;;;;7.40;5.60;;;;;;;;;;2048488;29;20023;-92
2023/06/09 03:48:16;;;;;;;7.13;5.00;;;;;;;;;;2037301;29;20032;-93
2023/06/09 03:49:17;;;;;;;8.85;5.03;;;;;;;;;;2036126;29;20031;-92
2023/06/09 03:50:17;;;;;;;7.80;4.88;;;;;;;;;;2031485;29;20024;-92
2023/06/09 03:51:19;;;;;;;6.13;5.45;;;;;;;;;;2042207;29;20020;-91
2023/06/09 03:52:21;;;;;;;6.20;4.78;;;;;;;;;;2034075;29;20103;-91
2023/06/09 03:53:23;;;;;;;7.03;5.15;;;;;;;;;;2040705;29;20024;-90
2023/06/09 03:54:23;;;;;;;8.43;5.40;;;;;;;;;;2039278;29;20108;-91
2023/06/09 03:55:24;;;;;;;5.70;5.10;;;;;;;;;;2026149;29;20412;-93
2023/06/09 03:56:25;;;;;;;6.20;4.47;;;;;;;;;;2024961;29;20032;-93
2023/06/09 03:57:26;;;;;;;7.32;5.28;;;;;;;;;;2024408;29;20048;-92
2023/06/09 03:58:27;;;;;;;8.18;5.03;;;;;;;;;;2024546;29;20116;-93
2023/06/09 03:59:27;;;;;;;8.52;5.57;;;;;;;;;;2034526;29;20035;-92
2023/06/09 04:00:27;;;;;;;5.95;4.90;;;;;;;;;;2043988;29;20050;-93
2023/06/09 04:01:28;;;;;;;7.65;5.10;;;;;;;;;;2039293;29;20365;-93
2023/06/09 04:02:28;;;;;;;7.18;5.63;;;;;;;;;;2024669;29;20166;-94
2023/06/09 04:03:30;;;;;;;5.70;5.18;;;;;;;;;;2025445;29;20044;-91
2023/06/09 04:04:30;;;;;;;6.20;4.85;;;;;;;;;;2025286;29;20530;-91
2023/06/09 04:05:30;;;;;;;8.18;5.20;;;;;;;;;;2016728;29;20091;-93
2023/06/09 04:06:31;;;;;;;7.50;4.88;;;;;;;;;;2024775;29;20028;-94
2023/06/09 04:07:32;;;;;;;8.40;5.38;;;;;;;;;;2031931;29;20024;-93
2023/06/09 04:08:34;;;;;;;11.73;5.85;;;;;;;;;;1755238;29;10001892;-94
2023/06/09 04:09:35;;;;;;;7.10;4.95;;;;;;;;;;2032227;29;20642;-93
2023/06/09 04:10:35;;;;;;;6.75;4.80;;;;;;;;;;2032232;29;20063;-94
2023/06/09 04:11:37;;;;;;;6.70;4.68;;;;;;;;;;2024146;29;20451;-94
2023/06/09 04:12:38;;;;;;;7.70;5.00;;;;;;;;;;2024131;29;20147;-93
2023/06/09 04:13:38;;;;;;;6.40;4.43;;;;;;;;;;2024304;29;20115;-94
2023/06/09 04:14:39;;;;;;;8.40;5.13;;;;;;;;;;2025720;29;20473;-93
2023/06/09 04:15:39;;;;;;;5.40;4.88;;;;;;;;;;2032832;29;20236;-93
2023/06/09 04:16:41;;;;;;;7.13;4.82;;;;;;;;;;2033056;29;20072;-94
2023/06/09 04:17:41;;;;;;;7.03;4.97;;;;;;;;;;2032777;29;20024;-94
2023/06/09 04:18:42;;;;;;;8.95;5.28;;;;;;;;;;2039985;29;20588;-93
2023/06/09 04:19:42;;;;;;;8.88;5.45;;;;;;;;;;2039983;29;20086;-93
2023/06/09 04:20:43;;;;;;;8.35;4.78;;;;;;;;;;2040459;29;20075;-94
2023/06/09 04:21:45;;;;;;;9.07;5.28;;;;;;;;;;2039729;29;20032;-94
2023/06/09 04:22:49;;;;;;;7.30;4.30;;;;;;;;;;2039973;29;20111;-93
2023/06/09 04:23:50;;;;;;;7.55;5.00;;;;;;;;;;2040621;29;20055;-94
2023/06/09 04:24:50;;;;;;;7.28;4.80;;;;;;;;;;2040593;29;20394;-94
2023/06/09 04:25:53;;;;;;;6.90;4.57;;;;;;;;;;2031787;29;20440;-95
2023/06/09 04:26:53;;;;;;;10.75;4.53;;;;;;;;;;2024313;29;20103;-93
2023/06/09 04:28:02;;;;;;;7.90;4.50;;;;;;;;;;2023895;29;20179;-93
2023/06/09 04:29:02;;;;;;;6.70;5.05;;;;;;;;;;2035741;29;20028;-93
2023/06/09 04:30:04;;;;;;;7.40;4.35;;;;;;;;;;2031741;29;20048;-93
2023/06/09 04:31:06;;;;;;;7.57;5.05;;;;;;;;;;2023990;29;20016;-93
2023/06/09 04:32:07;;;;;;;8.05;4.63;;;;;;;;;;2024380;29;20080;-92
2023/06/09 04:33:07;;;;;;;8.13;4.40;;;;;;;;;;2031295;29;20061;-92
2023/06/09 04:34:12;;;;;;;6.78;4.43;;;;;;;;;;2031860;29;20028;-94
2023/06/09 04:35:13;;;;;;;5.43;3.80;;;;;;;;;;2036993;29;20024;-93
2023/06/09 04:36:16;;;;;;;5.65;3.63;;;;;;;;;;2038482;29;20028;-92
2023/06/09 04:37:16;;;;;;;6.15;3.80;;;;;;;;;;2032861;29;20056;-94
2023/06/09 04:38:17;;;;;;;4.78;3.65;;;;;;;;;;2024325;29;20489;-93
2023/06/09 04:39:17;;;;;;;4.93;3.60;;;;;;;;;;2031825;29;20551;-93
2023/06/09 04:40:21;;;;;;;7.68;4.22;;;;;;;;;;2032200;29;20504;-94
2023/06/09 04:41:25;;;;;;;5.05;2.97;;;;;;;;;;2032400;29;20063;-93
2023/06/09 04:42:26;;;;;;;9.38;3.50;;;;;;;;;;2039711;29;20032;-93
2023/06/09 04:43:28;;;;;;;5.63;3.30;;;;;;;;;;2032106;29;20119;-94
2023/06/09 04:44:28;;;;;;;6.72;3.33;;;;;;;;;;2024013;29;20489;-92
2023/06/09 04:45:33;;;;;;;6.60;3.17;;;;;;;;;;2024049;29;20155;-94
2023/06/09 04:46:41;;;;;;;4.38;3.38;;;;;;;;;;2032416;29;20476;-93
2023/06/09 04:47:44;;;;;;;4.72;3.40;;;;;;;;;;2032012;29;20032;-92
2023/06/09 04:48:44;;;;;;;5.68;3.40;;;;;;;;;;2032357;29;20079;-93
2023/06/09 04:49:46;;;;;;;6.27;2.97;;;;;;;;;;1685944;29;10202471;-93
2023/06/09 04:50:49;;;;;;;4.50;3.25;;;;;;;;;;2032319;29;20039;-96
2023/06/09 04:51:50;;;;;;;10.45;4.10;;;;;;;;;;2032165;29;20452;-93
2023/06/09 04:52:50;;;;;;;8.90;3.72;;;;;;;;;;2032067;29;20031;-94
2023/06/09 04:53:54;;;;;;;6.45;3.50;;;;;;;;;;2032467;29;20024;-94
2023/06/09 04:54:57;;;;;;;5.43;3.75;;;;;;;;;;2040821;29;20028;-93
2023/06/09 04:56:00;;;;;;;7.07;2.90;;;;;;;;;;2040510;29;20022;-94
2023/06/09 04:57:02;;;;;;;6.32;3.30;;;;;;;;;;2024204;29;20123;-94
2023/06/09 04:58:03;;;;;;;4.60;3.40;;;;;;;;;;2024718;29;20024;-94
2023/06/09 04:59:04;;;;;;;5.53;3.28;;;;;;;;;;2032022;29;20024;-94
2023/06/09 05:00:24;;;;;;;5.03;2.83;;;;;;;;;;2032126;29;20055;-94
2023/06/09 05:01:25;;;;;;;5.30;3.15;;;;;;;;;;2034728;29;20497;-93
2023/06/09 05:02:26;;;;;;;5.47;3.20;;;;;;;;;;2039522;29;20518;-94
2023/06/09 05:03:27;;;;;;;6.43;3.38;;;;;;;;;;2031287;29;20076;-94
2023/06/09 05:04:28;;;;;;;5.22;3.17;;;;;;;;;;2023927;29;20457;-94
2023/06/09 05:05:28;;;;;;;3.58;3.10;;;;;;;;;;2031685;29;20040;-94
2023/06/09 05:06:29;;;;;;;7.75;2.90;;;;;;;;;;2040483;29;20056;-93
2023/06/09 05:07:29;;;;;;;3.33;2.88;;;;;;;;;;2031842;29;20028;-93
2023/06/09 05:08:30;;;;;;;3.30;3.00;;;;;;;;;;2031728;29;20393;-93
2023/06/09 05:09:33;;;;;;;3.28;2.72;;;;;;;;;;1690871;29;10261505;-93
2023/06/09 05:10:33;;;;;;;4.38;3.40;;;;;;;;;;2031908;29;20070;-94
2023/06/09 05:11:37;;;;;;;7.65;3.33;;;;;;;;;;2031971;29;20524;-94
2023/06/09 05:12:38;;;;;;;4.63;2.97;;;;;;;;;;1691167;29;10281727;-94
2023/06/09 05:13:39;;;;;;;3.15;2.80;;;;;;;;;;2041226;29;20131;-93
2023/06/09 05:14:42;;;;;;;5.80;3.08;;;;;;;;;;2033676;29;20568;-93
2023/06/09 05:15:42;;;;;;;5.22;2.47;;;;;;;;;;2026807;29;20033;-92
2023/06/09 05:16:45;;;;;;;5.18;2.55;;;;;;;;;;2032213;29;20028;-94
2023/06/09 05:17:46;;;;;;;3.35;1.98;;;;;;;;;;2032209;29;20095;-94
2023/06/09 05:18:47;;;;;;;4.43;2.78;;;;;;;;;;2031904;29;20504;-95
2023/06/09 05:19:49;;;;;;;3.30;2.13;;;;;;;;;;2031856;29;20148;-94
2023/06/09 05:20:52;;;;;;;2.40;1.90;;;;;;;;;;2040403;29;20030;-95
2023/06/09 05:21:56;;;;;;;7.03;2.58;;;;;;;;;;2032064;29;20020;-95
2023/06/09 05:22:57;;;;;;;7.30;2.75;;;;;;;;;;2024702;29;20032;-94
2023/06/09 05:23:57;;;;;;;2.10;1.88;;;;;;;;;;2024170;29;20035;-94
2023/06/09 05:24:58;;;;;;;2.67;2.40;;;;;;;;;;2025298;29;20489;-94
2023/06/09 05:25:58;;;;;;;3.78;1.88;;;;;;;;;;2029820;29;20029;-92
2023/06/09 05:26:59;;;;;;;3.58;1.80;;;;;;;;;;2037064;29;20433;-93
2023/06/09 05:28:02;;;;;;;2.38;1.95;;;;;;;;;;2032552;29;20242;-94
2023/06/09 05:29:03;;;;;;;4.47;2.40;;;;;;;;;;2041932;29;20404;-95
2023/06/09 05:30:04;;;;;;;5.93;2.00;;;;;;;;;;2033612;29;20028;-94
2023/06/09 05:31:05;;;;;;;3.00;2.10;;;;;;;;;;2025577;29;20497;-94
2023/06/09 05:32:05;;;;;;;4.20;1.98;;;;;;;;;;2033130;29;20016;-95
2023/06/09 05:33:06;;;;;;;2.60;2.10;;;;;;;;;;2042236;29;20043;-95
2023/06/09 05:34:07;;;;;;;2.50;1.92;;;;;;;;;;2042214;29;20438;-95
2023/06/09 05:35:10;;;;;;;5.45;2.35;;;;;;;;;;2042031;29;20027;-95
2023/06/09 05:36:12;;;;;;;4.00;2.38;;;;;;;;;;2033397;29;20036;-94
2023/06/09 05:37:16;;;;;;;3.67;2.13;;;;;;;;;;2025552;29;20473;-93
2023/06/09 05:38:17;;;;;;;2.60;1.90;;;;;;;;;;2033736;29;20035;-93
2023/06/09 05:39:18;;;;;;;5.30;2.00;;;;;;;;;;2042221;29;20511;-93
2023/06/09 05:40:18;;;;;;;4.72;2.10;;;;;;;;;;2033683;29;20382;-93
2023/06/09 05:41:21;;;;;;;3.10;1.88;;;;;;;;;;2033887;29;20028;-95
2023/06/09 05:42:23;;;;;;;2.70;1.80;;;;;;;;;;2042192;29;20027;-94
2023/06/09 05:43:27;;;;;;;2.25;1.90;;;;;;;;;;2034155;29;20045;-93
2023/06/09 05:44:28;;;;;;;3.33;2.13;;;;;;;;;;2025985;29;20044;-92
2023/06/09 05:45:29;;;;;;;4.18;1.70;;;;;;;;;;2032930;29;20062;-92
2023/06/09 05:46:30;;;;;;;5.00;2.15;;;;;;;;;;2033412;29;20050;-93
2023/06/09 05:47:31;;;;;;;4.20;1.90;;;;;;;;;;2033426;29;20331;-94
2023/06/09 05:48:32;;;;;;;3.50;2.20;;;;;;;;;;2025305;29;20096;-94
2023/06/09 05:49:35;;;;;;;2.92;2.30;;;;;;;;;;2033302;29;20035;-92
2023/06/09 05:50:37;;;;;;;3.22;1.73;;;;;;;;;;2042203;29;20030;-94
2023/06/09 05:51:38;;;;;;;4.25;1.95;;;;;;;;;;2033707;29;20024;-94
2023/06/09 05:52:38;;;;;;;4.32;1.92;;;;;;;;;;2033610;29;20052;-96
2023/06/09 05:53:39;;;;;;;3.05;1.90;;;;;;;;;;2042654;29;20125;-95
2023/06/09 05:54:41;;;;;;;3.65;1.98;;;;;;;;;;2042165;29;20094;-94
2023/06/09 05:55:44;;;;;;;3.22;1.70;;;;;;;;;;2040528;29;20046;-94
2023/06/09 05:56:48;;;;;;;3.03;1.88;;;;;;;;;;2036217;29;20021;-94
2023/06/09 05:57:49;;;;;;;3.38;1.95;;;;;;;;;;2036148;29;20012;-94
2023/06/09 05:58:50;;;;;;;5.53;2.22;;;;;;;;;;2043163;29;20048;-96
2023/06/09 05:59:53;;;;;;;5.22;2.00;;;;;;;;;;2041261;29;20052;-96
2023/06/09 06:01:13;;;;;;;3.60;1.73;;;;;;;;;;2035140;29;20064;-95
2023/06/09 06:02:13;;;;;;;6.27;2.30;;;;;;;;;;2040321;29;20060;-95
2023/06/09 06:03:34;;;;;;;3.50;2.40;;;;;;;;;;2044495;29;20088;-93
2023/06/09 06:06:51;;;;;;;3.42;2.40;;;;;;;;;;2002157;29;20030;-95
2023/06/09 06:07:58;;;;;;;3.00;2.45;;;;;;;;;;2026978;29;20439;-95
2023/06/09 06:08:59;;;;;;;2.67;2.22;;;;;;;;;;2026304;29;20059;-95
2023/06/09 06:09:59;;;;;;;3.13;1.75;;;;;;;;;;2025483;29;20354;-96
2023/06/09 06:11:01;;;;;;;3.13;1.80;;;;;;;;;;2025566;29;20081;-95
2023/06/09 06:12:05;;;;;;;4.55;2.05;;;;;;;;;;2033532;29;20028;-96
2023/06/09 06:13:08;;;;;;;6.03;1.92;;;;;;;;;;2033142;29;20012;-96
2023/06/09 06:14:13;;;;;;;3.63;2.05;;;;;;;;;;2033138;29;20024;-96
2023/06/09 06:15:13;;;;;;;1.90;1.70;;;;;;;;;;2029427;29;20050;-95
2023/06/09 06:16:21;;;;;;;5.50;2.35;;;;;;;;;;2035787;29;20101;-96